• pl
  • eng

Awiacja
Click on the bold red name to decode a message. 01:00 01.01.1970

METAR EPBY 180800Z 28003KT 3700 BR BKN016 OVC019 M01/M02 Q1031 =

METAR EPGD 180800Z 31008KT 6000 -DZ FEW004 BKN006 04/04 Q1029 =

METAR EPKK 180800Z VRB02KT CAVOK M02/M05 Q1029 =

METAR EPKT 180800Z 05003KT 020V090 9000 NSC M03/M06 Q1028 =

METAR EPLB 180800Z 31004KT 9000 NSC M03/M05 Q1029 =

METAR EPLL 180800Z VRB02KT 5000 BR NSC M04/M06 Q1030 =

METAR EPMO 180800Z 24005KT 8000 NSC M01/M04 Q1029 =

METAR EPPO 180800Z 27004KT 2500 BR NSC M02/M02 Q1031 =

METAR EPRA 180800Z 26003KT 4000 BR NSC M04/M04 Q1029=

METAR EPRZ 180800Z 00000KT 9999 FEW047 M03/M05 Q1029 =

METAR EPSC 180800Z 00000KT 8000 SCT013 BKN018 OVC024 M01/M02 Q1032 =

METAR EPSY 180800Z NIL=

METAR EPWA 180800Z 24005KT 4400 BR NSC M03/M04 Q1029 BECMG 5000=

METAR EPWR 180800Z 30003KT 260V340 5000 BR NSC M04/M05 Q1031 =

METAR EPZG 180800Z 01001KT 2500 BR NSC M05/M05 Q1032 =
Awiacja.imgw.pl jest pogodowym serwisem informacyjnym
Instytutu Meteorologii i Gospodarki Wodnej Państwowego Instytutu Badawczego.
Copyright IMGW PIB 2009-2011© Wszelkie prawa zastrzeżone.